sensor_id;sensor_type;location;lat;lon;timestamp;temperature;humidity
2030;DHT22;1020;48.854;8.830;2022-09-09T00:02:27;15.40;1.00
2030;DHT22;1020;48.854;8.830;2022-09-09T00:04:59;15.40;1.00
2030;DHT22;1020;48.854;8.830;2022-09-09T00:07:34;15.40;1.00
2030;DHT22;1020;48.854;8.830;2022-09-09T00:10:13;15.30;1.00
2030;DHT22;1020;48.854;8.830;2022-09-09T00:12:48;15.30;1.00
2030;DHT22;1020;48.854;8.830;2022-09-09T00:15:22;15.30;1.00
2030;DHT22;1020;48.854;8.830;2022-09-09T00:17:55;15.30;1.00
2030;DHT22;1020;48.854;8.830;2022-09-09T00:20:29;15.30;1.00
2030;DHT22;1020;48.854;8.830;2022-09-09T00:23:05;15.30;1.00
2030;DHT22;1020;48.854;8.830;2022-09-09T00:25:41;15.40;1.00
2030;DHT22;1020;48.854;8.830;2022-09-09T00:28:13;17.70;1.00
2030;DHT22;1020;48.854;8.830;2022-09-09T00:30:43;15.30;4.10
2030;DHT22;1020;48.854;8.830;2022-09-09T00:33:15;15.30;1.00
2030;DHT22;1020;48.854;8.830;2022-09-09T00:35:45;15.30;1.00
2030;DHT22;1020;48.854;8.830;2022-09-09T00:38:17;15.30;1.00
2030;DHT22;1020;48.854;8.830;2022-09-09T00:40:49;15.30;72.80
2030;DHT22;1020;48.854;8.830;2022-09-09T00:43:26;15.30;99.90
2030;DHT22;1020;48.854;8.830;2022-09-09T00:49:00;15.20;99.90
2030;DHT22;1020;48.854;8.830;2022-09-09T00:51:37;15.20;99.90
2030;DHT22;1020;48.854;8.830;2022-09-09T00:54:18;15.20;99.90
2030;DHT22;1020;48.854;8.830;2022-09-09T00:56:49;15.20;99.90
2030;DHT22;1020;48.854;8.830;2022-09-09T00:59:27;15.20;99.90
2030;DHT22;1020;48.854;8.830;2022-09-09T01:01:55;15.20;99.90
2030;DHT22;1020;48.854;8.830;2022-09-09T01:04:27;15.30;99.90
2030;DHT22;1020;48.854;8.830;2022-09-09T01:07:04;15.30;99.90
2030;DHT22;1020;48.854;8.830;2022-09-09T01:09:42;15.30;99.90
2030;DHT22;1020;48.854;8.830;2022-09-09T01:12:15;15.30;99.90
2030;DHT22;1020;48.854;8.830;2022-09-09T01:14:45;15.20;99.90
2030;DHT22;1020;48.854;8.830;2022-09-09T01:17:15;15.30;99.90
2030;DHT22;1020;48.854;8.830;2022-09-09T01:19:55;15.30;99.90
2030;DHT22;1020;48.854;8.830;2022-09-09T01:22:33;15.20;99.90
2030;DHT22;1020;48.854;8.830;2022-09-09T01:25:22;15.20;99.90
2030;DHT22;1020;48.854;8.830;2022-09-09T01:27:57;15.20;99.90
2030;DHT22;1020;48.854;8.830;2022-09-09T01:30:25;15.30;99.90
2030;DHT22;1020;48.854;8.830;2022-09-09T01:32:54;15.30;95.30
2030;DHT22;1020;48.854;8.830;2022-09-09T01:35:32;15.30;96.00
2030;DHT22;1020;48.854;8.830;2022-09-09T01:38:03;15.30;99.90
2030;DHT22;1020;48.854;8.830;2022-09-09T01:40:32;15.30;99.90
2030;DHT22;1020;48.854;8.830;2022-09-09T01:43:00;15.30;99.90
2030;DHT22;1020;48.854;8.830;2022-09-09T01:45:27;15.50;1.00
2030;DHT22;1020;48.854;8.830;2022-09-09T01:47:54;15.70;99.90
2030;DHT22;1020;48.854;8.830;2022-09-09T01:50:22;15.80;1.00
2030;DHT22;1020;48.854;8.830;2022-09-09T01:52:53;15.50;99.90
2030;DHT22;1020;48.854;8.830;2022-09-09T01:55:28;15.30;1.00
2030;DHT22;1020;48.854;8.830;2022-09-09T01:58:06;15.10;1.00
2030;DHT22;1020;48.854;8.830;2022-09-09T02:00:38;14.90;1.00
2030;DHT22;1020;48.854;8.830;2022-09-09T02:03:14;14.80;35.20
2030;DHT22;1020;48.854;8.830;2022-09-09T02:05:50;14.70;84.80
2030;DHT22;1020;48.854;8.830;2022-09-09T02:08:22;14.60;99.90
2030;DHT22;1020;48.854;8.830;2022-09-09T02:10:55;12.80;99.90
2030;DHT22;1020;48.854;8.830;2022-09-09T02:13:25;14.40;99.90
2030;DHT22;1020;48.854;8.830;2022-09-09T02:15:55;14.40;99.90
2030;DHT22;1020;48.854;8.830;2022-09-09T02:18:27;14.30;99.90
2030;DHT22;1020;48.854;8.830;2022-09-09T02:20:56;14.30;99.90
2030;DHT22;1020;48.854;8.830;2022-09-09T02:23:24;14.20;99.90
2030;DHT22;1020;48.854;8.830;2022-09-09T02:25:51;14.20;99.90
2030;DHT22;1020;48.854;8.830;2022-09-09T02:28:21;14.20;99.90
2030;DHT22;1020;48.854;8.830;2022-09-09T02:30:52;14.20;99.90
2030;DHT22;1020;48.854;8.830;2022-09-09T02:33:24;14.10;99.90
2030;DHT22;1020;48.854;8.830;2022-09-09T02:35:52;14.10;99.90
2030;DHT22;1020;48.854;8.830;2022-09-09T02:38:25;14.10;99.90
2030;DHT22;1020;48.854;8.830;2022-09-09T02:40:53;14.10;99.90
2030;DHT22;1020;48.854;8.830;2022-09-09T02:43:20;14.10;99.90
2030;DHT22;1020;48.854;8.830;2022-09-09T02:45:53;14.80;99.90
2030;DHT22;1020;48.854;8.830;2022-09-09T02:48:26;14.00;99.90
2030;DHT22;1020;48.854;8.830;2022-09-09T02:51:02;14.00;99.90
2030;DHT22;1020;48.854;8.830;2022-09-09T02:53:36;14.00;99.90
2030;DHT22;1020;48.854;8.830;2022-09-09T02:56:09;14.00;99.90
2030;DHT22;1020;48.854;8.830;2022-09-09T02:58:40;14.00;99.90
2030;DHT22;1020;48.854;8.830;2022-09-09T03:01:09;13.90;99.90
2030;DHT22;1020;48.854;8.830;2022-09-09T03:03:36;14.00;99.90
2030;DHT22;1020;48.854;8.830;2022-09-09T03:06:03;13.90;99.90
2030;DHT22;1020;48.854;8.830;2022-09-09T03:08:31;13.80;99.90
2030;DHT22;1020;48.854;8.830;2022-09-09T03:10:59;13.70;99.90
2030;DHT22;1020;48.854;8.830;2022-09-09T03:13:27;13.70;99.90
2030;DHT22;1020;48.854;8.830;2022-09-09T03:15:53;13.60;99.90
2030;DHT22;1020;48.854;8.830;2022-09-09T03:18:22;13.60;99.90
2030;DHT22;1020;48.854;8.830;2022-09-09T03:20:48;13.60;99.90
2030;DHT22;1020;48.854;8.830;2022-09-09T03:23:16;13.60;99.90
2030;DHT22;1020;48.854;8.830;2022-09-09T03:25:46;13.50;99.90
2030;DHT22;1020;48.854;8.830;2022-09-09T03:28:13;13.50;99.90
2030;DHT22;1020;48.854;8.830;2022-09-09T03:30:40;13.60;99.90
2030;DHT22;1020;48.854;8.830;2022-09-09T03:33:07;13.60;99.90
2030;DHT22;1020;48.854;8.830;2022-09-09T03:35:35;13.60;99.90
2030;DHT22;1020;48.854;8.830;2022-09-09T03:38:02;13.60;99.90
2030;DHT22;1020;48.854;8.830;2022-09-09T03:40:29;13.60;99.90
2030;DHT22;1020;48.854;8.830;2022-09-09T03:42:56;13.60;99.90
2030;DHT22;1020;48.854;8.830;2022-09-09T03:45:23;13.60;99.90
2030;DHT22;1020;48.854;8.830;2022-09-09T03:47:49;13.60;99.90
2030;DHT22;1020;48.854;8.830;2022-09-09T03:50:16;13.60;99.90
2030;DHT22;1020;48.854;8.830;2022-09-09T03:52:45;13.60;99.90
2030;DHT22;1020;48.854;8.830;2022-09-09T03:55:12;13.50;99.90
2030;DHT22;1020;48.854;8.830;2022-09-09T03:57:39;13.50;99.90
2030;DHT22;1020;48.854;8.830;2022-09-09T04:00:07;13.50;99.90
2030;DHT22;1020;48.854;8.830;2022-09-09T04:02:34;13.50;99.90
2030;DHT22;1020;48.854;8.830;2022-09-09T04:05:01;13.50;99.90
2030;DHT22;1020;48.854;8.830;2022-09-09T04:07:28;13.60;99.90
2030;DHT22;1020;48.854;8.830;2022-09-09T04:09:56;13.60;99.90
2030;DHT22;1020;48.854;8.830;2022-09-09T04:12:23;13.60;99.90
2030;DHT22;1020;48.854;8.830;2022-09-09T04:14:50;13.60;99.90
2030;DHT22;1020;48.854;8.830;2022-09-09T04:17:16;13.60;99.90
2030;DHT22;1020;48.854;8.830;2022-09-09T04:19:43;13.70;99.90
2030;DHT22;1020;48.854;8.830;2022-09-09T04:22:10;13.70;99.90
2030;DHT22;1020;48.854;8.830;2022-09-09T04:24:37;13.70;99.90
2030;DHT22;1020;48.854;8.830;2022-09-09T04:27:05;13.70;99.90
2030;DHT22;1020;48.854;8.830;2022-09-09T04:29:31;13.70;99.90
2030;DHT22;1020;48.854;8.830;2022-09-09T04:31:58;13.50;99.90
2030;DHT22;1020;48.854;8.830;2022-09-09T04:34:25;13.50;99.90
2030;DHT22;1020;48.854;8.830;2022-09-09T04:36:52;13.50;99.90
2030;DHT22;1020;48.854;8.830;2022-09-09T04:39:20;13.40;99.90
2030;DHT22;1020;48.854;8.830;2022-09-09T04:41:46;13.40;99.90
2030;DHT22;1020;48.854;8.830;2022-09-09T04:44:15;13.30;99.90
2030;DHT22;1020;48.854;8.830;2022-09-09T04:46:42;13.30;99.90
2030;DHT22;1020;48.854;8.830;2022-09-09T04:49:08;13.30;99.90
2030;DHT22;1020;48.854;8.830;2022-09-09T04:51:35;13.30;99.90
2030;DHT22;1020;48.854;8.830;2022-09-09T04:54:02;14.30;99.90
2030;DHT22;1020;48.854;8.830;2022-09-09T04:56:29;13.30;99.90
2030;DHT22;1020;48.854;8.830;2022-09-09T04:58:55;13.40;99.90
2030;DHT22;1020;48.854;8.830;2022-09-09T05:01:23;13.40;99.90
2030;DHT22;1020;48.854;8.830;2022-09-09T05:03:51;13.40;99.90
2030;DHT22;1020;48.854;8.830;2022-09-09T05:06:20;13.30;99.90
2030;DHT22;1020;48.854;8.830;2022-09-09T05:08:47;13.40;99.90
2030;DHT22;1020;48.854;8.830;2022-09-09T05:11:19;13.40;99.90
2030;DHT22;1020;48.854;8.830;2022-09-09T05:13:46;13.40;99.90
2030;DHT22;1020;48.854;8.830;2022-09-09T05:16:14;13.40;99.90
2030;DHT22;1020;48.854;8.830;2022-09-09T05:18:42;13.40;99.90
2030;DHT22;1020;48.854;8.830;2022-09-09T05:21:09;13.40;99.90
2030;DHT22;1020;48.854;8.830;2022-09-09T05:23:36;13.40;99.90
2030;DHT22;1020;48.854;8.830;2022-09-09T05:26:04;13.50;99.90
2030;DHT22;1020;48.854;8.830;2022-09-09T05:28:33;13.50;99.90
2030;DHT22;1020;48.854;8.830;2022-09-09T05:31:02;13.50;99.90
2030;DHT22;1020;48.854;8.830;2022-09-09T05:33:31;13.50;99.90
2030;DHT22;1020;48.854;8.830;2022-09-09T05:36:01;13.60;99.90
2030;DHT22;1020;48.854;8.830;2022-09-09T05:38:28;13.60;99.90
2030;DHT22;1020;48.854;8.830;2022-09-09T05:40:56;13.70;99.90
2030;DHT22;1020;48.854;8.830;2022-09-09T05:43:23;13.70;99.90
2030;DHT22;1020;48.854;8.830;2022-09-09T05:45:59;13.80;99.90
2030;DHT22;1020;48.854;8.830;2022-09-09T05:48:28;13.90;99.90
2030;DHT22;1020;48.854;8.830;2022-09-09T05:50:55;13.90;99.90
2030;DHT22;1020;48.854;8.830;2022-09-09T05:53:23;14.10;99.90
2030;DHT22;1020;48.854;8.830;2022-09-09T05:55:49;14.10;99.90
2030;DHT22;1020;48.854;8.830;2022-09-09T05:58:16;14.10;99.90
2030;DHT22;1020;48.854;8.830;2022-09-09T06:00:43;14.20;99.90
2030;DHT22;1020;48.854;8.830;2022-09-09T06:03:10;14.20;99.90
2030;DHT22;1020;48.854;8.830;2022-09-09T06:05:37;14.30;99.90
2030;DHT22;1020;48.854;8.830;2022-09-09T06:08:04;14.30;99.90
2030;DHT22;1020;48.854;8.830;2022-09-09T06:10:32;14.20;99.90
2030;DHT22;1020;48.854;8.830;2022-09-09T06:13:00;14.10;99.90
2030;DHT22;1020;48.854;8.830;2022-09-09T06:15:26;14.00;99.90
2030;DHT22;1020;48.854;8.830;2022-09-09T06:17:55;14.00;99.90
2030;DHT22;1020;48.854;8.830;2022-09-09T06:20:21;14.00;99.90
2030;DHT22;1020;48.854;8.830;2022-09-09T06:22:48;14.10;99.90
2030;DHT22;1020;48.854;8.830;2022-09-09T06:25:15;14.20;99.90
2030;DHT22;1020;48.854;8.830;2022-09-09T06:27:48;14.30;99.90
2030;DHT22;1020;48.854;8.830;2022-09-09T06:30:15;14.50;99.90
2030;DHT22;1020;48.854;8.830;2022-09-09T06:32:43;14.80;93.30
2030;DHT22;1020;48.854;8.830;2022-09-09T06:35:10;15.00;73.60
2030;DHT22;1020;48.854;8.830;2022-09-09T06:37:37;15.40;57.20
2030;DHT22;1020;48.854;8.830;2022-09-09T06:40:04;15.60;26.50
2030;DHT22;1020;48.854;8.830;2022-09-09T06:42:31;15.70;4.10
2030;DHT22;1020;48.854;8.830;2022-09-09T06:45:00;15.90;1.00
2030;DHT22;1020;48.854;8.830;2022-09-09T06:47:28;16.10;1.00
2030;DHT22;1020;48.854;8.830;2022-09-09T06:49:55;16.40;1.00
2030;DHT22;1020;48.854;8.830;2022-09-09T06:52:22;16.60;1.00
2030;DHT22;1020;48.854;8.830;2022-09-09T06:54:50;17.10;1.00
2030;DHT22;1020;48.854;8.830;2022-09-09T06:57:16;16.90;1.00
2030;DHT22;1020;48.854;8.830;2022-09-09T06:59:43;17.00;1.00
2030;DHT22;1020;48.854;8.830;2022-09-09T07:02:11;17.30;1.00
2030;DHT22;1020;48.854;8.830;2022-09-09T07:04:38;18.10;99.90
2030;DHT22;1020;48.854;8.830;2022-09-09T07:07:05;18.60;99.90
2030;DHT22;1020;48.854;8.830;2022-09-09T07:09:33;18.30;99.90
2030;DHT22;1020;48.854;8.830;2022-09-09T07:12:01;17.80;1.00
2030;DHT22;1020;48.854;8.830;2022-09-09T07:14:27;17.70;1.00
2030;DHT22;1020;48.854;8.830;2022-09-09T07:16:54;18.10;99.90
2030;DHT22;1020;48.854;8.830;2022-09-09T07:19:22;18.30;99.90
2030;DHT22;1020;48.854;8.830;2022-09-09T07:21:49;18.40;1.00
2030;DHT22;1020;48.854;8.830;2022-09-09T07:24:16;18.20;1.00
2030;DHT22;1020;48.854;8.830;2022-09-09T07:26:43;18.30;1.00
2030;DHT22;1020;48.854;8.830;2022-09-09T07:29:11;18.80;1.00
2030;DHT22;1020;48.854;8.830;2022-09-09T07:31:40;19.60;99.90
2030;DHT22;1020;48.854;8.830;2022-09-09T07:34:06;19.20;99.90
2030;DHT22;1020;48.854;8.830;2022-09-09T07:36:36;18.90;99.90
2030;DHT22;1020;48.854;8.830;2022-09-09T07:39:05;18.80;99.90
2030;DHT22;1020;48.854;8.830;2022-09-09T07:41:34;18.70;99.90
2030;DHT22;1020;48.854;8.830;2022-09-09T07:44:04;18.80;99.90
2030;DHT22;1020;48.854;8.830;2022-09-09T07:46:32;18.80;99.90
2030;DHT22;1020;48.854;8.830;2022-09-09T07:48:59;19.00;1.00
2030;DHT22;1020;48.854;8.830;2022-09-09T07:51:27;19.90;99.90
2030;DHT22;1020;48.854;8.830;2022-09-09T07:53:57;20.90;1.00
2030;DHT22;1020;48.854;8.830;2022-09-09T07:56:25;21.70;1.00
2030;DHT22;1020;48.854;8.830;2022-09-09T07:58:54;22.50;1.00
2030;DHT22;1020;48.854;8.830;2022-09-09T08:01:22;21.50;1.00
2030;DHT22;1020;48.854;8.830;2022-09-09T08:03:53;22.30;1.00
2030;DHT22;1020;48.854;8.830;2022-09-09T08:06:22;22.00;1.00
2030;DHT22;1020;48.854;8.830;2022-09-09T08:08:50;21.30;1.00
2030;DHT22;1020;48.854;8.830;2022-09-09T08:11:19;21.40;1.00
2030;DHT22;1020;48.854;8.830;2022-09-09T08:13:46;21.10;1.00
2030;DHT22;1020;48.854;8.830;2022-09-09T08:16:15;21.00;1.00
2030;DHT22;1020;48.854;8.830;2022-09-09T08:18:42;21.40;1.00
2030;DHT22;1020;48.854;8.830;2022-09-09T08:21:12;21.70;1.00
2030;DHT22;1020;48.854;8.830;2022-09-09T08:23:39;21.60;1.00
2030;DHT22;1020;48.854;8.830;2022-09-09T08:26:10;21.00;1.00
2030;DHT22;1020;48.854;8.830;2022-09-09T08:28:39;20.60;1.00
2030;DHT22;1020;48.854;8.830;2022-09-09T08:31:11;20.50;1.00
2030;DHT22;1020;48.854;8.830;2022-09-09T08:33:39;20.50;1.00
2030;DHT22;1020;48.854;8.830;2022-09-09T08:36:08;20.00;1.00
2030;DHT22;1020;48.854;8.830;2022-09-09T08:38:35;19.90;1.00
2030;DHT22;1020;48.854;8.830;2022-09-09T08:44:08;20.80;1.00
2030;DHT22;1020;48.854;8.830;2022-09-09T08:46:44;21.20;1.00
2030;DHT22;1020;48.854;8.830;2022-09-09T08:49:23;21.40;1.00
2030;DHT22;1020;48.854;8.830;2022-09-09T08:51:55;21.60;1.00
2030;DHT22;1020;48.854;8.830;2022-09-09T08:54:23;22.20;1.00
2030;DHT22;1020;48.854;8.830;2022-09-09T08:56:50;22.30;1.00
2030;DHT22;1020;48.854;8.830;2022-09-09T08:59:19;21.10;1.00
2030;DHT22;1020;48.854;8.830;2022-09-09T09:02:00;21.50;1.00
2030;DHT22;1020;48.854;8.830;2022-09-09T09:05:03;21.00;1.00
2030;DHT22;1020;48.854;8.830;2022-09-09T09:07:44;21.30;1.00
2030;DHT22;1020;48.854;8.830;2022-09-09T09:10:18;21.70;1.00
2030;DHT22;1020;48.854;8.830;2022-09-09T09:12:50;21.90;1.00
2030;DHT22;1020;48.854;8.830;2022-09-09T09:15:21;21.60;1.00
2030;DHT22;1020;48.854;8.830;2022-09-09T09:17:49;21.40;1.00
2030;DHT22;1020;48.854;8.830;2022-09-09T09:20:20;21.60;1.00
2030;DHT22;1020;48.854;8.830;2022-09-09T09:22:50;21.90;1.00
2030;DHT22;1020;48.854;8.830;2022-09-09T09:25:20;22.20;1.00
2030;DHT22;1020;48.854;8.830;2022-09-09T09:27:54;22.50;1.00
2030;DHT22;1020;48.854;8.830;2022-09-09T09:30:26;21.70;1.00
2030;DHT22;1020;48.854;8.830;2022-09-09T09:32:58;22.10;1.00
2030;DHT22;1020;48.854;8.830;2022-09-09T09:35:26;22.30;99.90
2030;DHT22;1020;48.854;8.830;2022-09-09T09:37:53;22.60;99.90
2030;DHT22;1020;48.854;8.830;2022-09-09T09:40:21;22.60;99.90
2030;DHT22;1020;48.854;8.830;2022-09-09T09:42:51;22.90;99.90
2030;DHT22;1020;48.854;8.830;2022-09-09T09:45:28;22.50;99.90
2030;DHT22;1020;48.854;8.830;2022-09-09T09:48:01;23.20;1.00
2030;DHT22;1020;48.854;8.830;2022-09-09T09:50:29;23.70;99.90
2030;DHT22;1020;48.854;8.830;2022-09-09T09:52:58;24.50;99.90
2030;DHT22;1020;48.854;8.830;2022-09-09T09:55:26;24.80;99.90
2030;DHT22;1020;48.854;8.830;2022-09-09T09:58:01;24.90;99.90
2030;DHT22;1020;48.854;8.830;2022-09-09T10:00:30;25.30;99.90
2030;DHT22;1020;48.854;8.830;2022-09-09T10:02:59;25.20;99.90
2030;DHT22;1020;48.854;8.830;2022-09-09T10:05:27;25.50;99.90
2030;DHT22;1020;48.854;8.830;2022-09-09T10:08:02;26.10;99.90
2030;DHT22;1020;48.854;8.830;2022-09-09T10:10:39;26.10;99.90
2030;DHT22;1020;48.854;8.830;2022-09-09T10:13:13;26.10;99.90
2030;DHT22;1020;48.854;8.830;2022-09-09T10:15:50;26.50;99.90
2030;DHT22;1020;48.854;8.830;2022-09-09T10:18:38;26.00;99.90
2030;DHT22;1020;48.854;8.830;2022-09-09T10:21:17;25.30;99.90
2030;DHT22;1020;48.854;8.830;2022-09-09T10:24:00;24.40;99.90
2030;DHT22;1020;48.854;8.830;2022-09-09T10:26:38;23.70;99.90
2030;DHT22;1020;48.854;8.830;2022-09-09T10:29:30;23.00;99.90
2030;DHT22;1020;48.854;8.830;2022-09-09T10:32:07;22.50;99.90
2030;DHT22;1020;48.854;8.830;2022-09-09T10:34:54;21.70;99.90
2030;DHT22;1020;48.854;8.830;2022-09-09T10:37:34;20.80;99.90
2030;DHT22;1020;48.854;8.830;2022-09-09T10:40:19;20.30;1.00
2030;DHT22;1020;48.854;8.830;2022-09-09T10:42:47;19.80;1.00
2030;DHT22;1020;48.854;8.830;2022-09-09T10:45:18;19.10;99.90
2030;DHT22;1020;48.854;8.830;2022-09-09T10:48:02;19.00;1.00
2030;DHT22;1020;48.854;8.830;2022-09-09T10:50:48;18.60;99.90
2030;DHT22;1020;48.854;8.830;2022-09-09T10:53:25;18.30;99.90
2030;DHT22;1020;48.854;8.830;2022-09-09T10:55:59;19.70;99.90
2030;DHT22;1020;48.854;8.830;2022-09-09T10:58:31;16.20;1.00
2030;DHT22;1020;48.854;8.830;2022-09-09T11:01:03;16.20;1.00
2030;DHT22;1020;48.854;8.830;2022-09-09T11:03:36;15.70;1.00
2030;DHT22;1020;48.854;8.830;2022-09-09T11:06:07;15.50;25.80
2030;DHT22;1020;48.854;8.830;2022-09-09T11:08:39;15.30;36.50
2030;DHT22;1020;48.854;8.830;2022-09-09T11:11:12;15.00;44.80
2030;DHT22;1020;48.854;8.830;2022-09-09T11:13:45;14.90;93.70
2030;DHT22;1020;48.854;8.830;2022-09-09T11:16:20;14.70;99.90
2030;DHT22;1020;48.854;8.830;2022-09-09T11:18:50;14.60;99.90
2030;DHT22;1020;48.854;8.830;2022-09-09T11:21:23;14.60;99.90
2030;DHT22;1020;48.854;8.830;2022-09-09T11:23:55;14.50;99.90
2030;DHT22;1020;48.854;8.830;2022-09-09T11:26:29;14.50;99.90
2030;DHT22;1020;48.854;8.830;2022-09-09T11:29:12;15.60;99.90
2030;DHT22;1020;48.854;8.830;2022-09-09T11:31:46;14.40;99.90
2030;DHT22;1020;48.854;8.830;2022-09-09T11:34:30;14.40;99.90
2030;DHT22;1020;48.854;8.830;2022-09-09T11:37:13;14.50;99.90
2030;DHT22;1020;48.854;8.830;2022-09-09T11:40:04;14.60;99.90
2030;DHT22;1020;48.854;8.830;2022-09-09T11:42:35;14.80;99.90
2030;DHT22;1020;48.854;8.830;2022-09-09T11:45:20;15.10;99.90
2030;DHT22;1020;48.854;8.830;2022-09-09T11:47:53;15.60;99.90
2030;DHT22;1020;48.854;8.830;2022-09-09T11:50:33;15.90;99.90
2030;DHT22;1020;48.854;8.830;2022-09-09T11:53:19;16.40;99.90
2030;DHT22;1020;48.854;8.830;2022-09-09T11:55:59;16.90;29.10
2030;DHT22;1020;48.854;8.830;2022-09-09T11:58:27;17.20;1.00
2030;DHT22;1020;48.854;8.830;2022-09-09T12:00:58;17.40;10.80
2030;DHT22;1020;48.854;8.830;2022-09-09T12:03:40;17.80;18.80
2030;DHT22;1020;48.854;8.830;2022-09-09T12:06:13;17.80;1.00
2030;DHT22;1020;48.854;8.830;2022-09-09T12:08:43;18.70;1.00
2030;DHT22;1020;48.854;8.830;2022-09-09T12:11:11;19.30;1.00
2030;DHT22;1020;48.854;8.830;2022-09-09T12:13:38;19.70;99.90
2030;DHT22;1020;48.854;8.830;2022-09-09T12:16:28;19.90;1.00
2030;DHT22;1020;48.854;8.830;2022-09-09T12:19:04;20.10;99.90
2030;DHT22;1020;48.854;8.830;2022-09-09T12:21:36;20.10;1.00
2030;DHT22;1020;48.854;8.830;2022-09-09T12:24:09;20.30;99.90
2030;DHT22;1020;48.854;8.830;2022-09-09T12:26:39;21.10;1.00
2030;DHT22;1020;48.854;8.830;2022-09-09T12:29:15;21.40;99.90
2030;DHT22;1020;48.854;8.830;2022-09-09T12:31:47;21.50;99.90
2030;DHT22;1020;48.854;8.830;2022-09-09T12:34:21;21.80;99.90
2030;DHT22;1020;48.854;8.830;2022-09-09T12:36:57;22.20;52.60
2030;DHT22;1020;48.854;8.830;2022-09-09T12:39:29;22.10;1.00
2030;DHT22;1020;48.854;8.830;2022-09-09T12:41:58;21.80;1.00
2030;DHT22;1020;48.854;8.830;2022-09-09T12:44:25;21.90;1.00
2030;DHT22;1020;48.854;8.830;2022-09-09T12:46:54;21.90;1.00
2030;DHT22;1020;48.854;8.830;2022-09-09T12:49:28;22.30;1.00
2030;DHT22;1020;48.854;8.830;2022-09-09T12:52:01;22.50;1.00
2030;DHT22;1020;48.854;8.830;2022-09-09T12:54:31;22.40;1.00
2030;DHT22;1020;48.854;8.830;2022-09-09T12:56:58;21.90;1.00
2030;DHT22;1020;48.854;8.830;2022-09-09T12:59:26;22.60;1.00
2030;DHT22;1020;48.854;8.830;2022-09-09T13:02:00;22.70;1.00
2030;DHT22;1020;48.854;8.830;2022-09-09T13:04:27;22.50;1.00
2030;DHT22;1020;48.854;8.830;2022-09-09T13:07:07;22.60;1.00
2030;DHT22;1020;48.854;8.830;2022-09-09T13:09:35;23.30;1.00
2030;DHT22;1020;48.854;8.830;2022-09-09T13:12:04;23.10;1.00
2030;DHT22;1020;48.854;8.830;2022-09-09T13:14:35;22.80;1.00
2030;DHT22;1020;48.854;8.830;2022-09-09T13:17:04;22.80;1.00
2030;DHT22;1020;48.854;8.830;2022-09-09T13:19:35;22.70;99.90
2030;DHT22;1020;48.854;8.830;2022-09-09T13:22:13;22.90;1.00
2030;DHT22;1020;48.854;8.830;2022-09-09T13:24:40;23.00;99.90
2030;DHT22;1020;48.854;8.830;2022-09-09T13:27:24;23.30;99.90
2030;DHT22;1020;48.854;8.830;2022-09-09T13:29:54;23.10;99.90
2030;DHT22;1020;48.854;8.830;2022-09-09T13:32:23;23.00;99.90
2030;DHT22;1020;48.854;8.830;2022-09-09T13:34:51;23.00;99.90
2030;DHT22;1020;48.854;8.830;2022-09-09T13:37:23;22.70;99.90
2030;DHT22;1020;48.854;8.830;2022-09-09T13:39:53;22.70;99.90
2030;DHT22;1020;48.854;8.830;2022-09-09T13:42:25;23.30;99.90
2030;DHT22;1020;48.854;8.830;2022-09-09T13:44:53;23.40;99.90
2030;DHT22;1020;48.854;8.830;2022-09-09T13:47:26;23.70;99.90
2030;DHT22;1020;48.854;8.830;2022-09-09T13:49:53;23.50;99.90
2030;DHT22;1020;48.854;8.830;2022-09-09T13:52:21;23.60;99.90
2030;DHT22;1020;48.854;8.830;2022-09-09T13:54:49;23.70;99.90
2030;DHT22;1020;48.854;8.830;2022-09-09T13:57:18;23.00;99.90
2030;DHT22;1020;48.854;8.830;2022-09-09T13:59:45;23.00;99.90
2030;DHT22;1020;48.854;8.830;2022-09-09T14:02:12;23.00;99.90
2030;DHT22;1020;48.854;8.830;2022-09-09T14:04:38;23.20;99.90
2030;DHT22;1020;48.854;8.830;2022-09-09T14:07:10;23.30;99.90
2030;DHT22;1020;48.854;8.830;2022-09-09T14:09:39;23.10;99.90
2030;DHT22;1020;48.854;8.830;2022-09-09T14:12:08;22.90;99.90
2030;DHT22;1020;48.854;8.830;2022-09-09T14:14:35;23.00;99.90
2030;DHT22;1020;48.854;8.830;2022-09-09T14:17:01;22.20;99.90
2030;DHT22;1020;48.854;8.830;2022-09-09T14:19:29;22.00;99.90
2030;DHT22;1020;48.854;8.830;2022-09-09T14:21:56;21.90;99.90
2030;DHT22;1020;48.854;8.830;2022-09-09T14:24:23;22.10;99.90
2030;DHT22;1020;48.854;8.830;2022-09-09T14:26:51;22.30;99.90
2030;DHT22;1020;48.854;8.830;2022-09-09T14:29:18;22.20;99.90
2030;DHT22;1020;48.854;8.830;2022-09-09T14:31:45;22.30;99.90
2030;DHT22;1020;48.854;8.830;2022-09-09T14:34:12;22.30;99.90
2030;DHT22;1020;48.854;8.830;2022-09-09T14:36:39;22.10;99.90
2030;DHT22;1020;48.854;8.830;2022-09-09T14:39:06;22.20;99.90
2030;DHT22;1020;48.854;8.830;2022-09-09T14:41:33;21.50;99.90
2030;DHT22;1020;48.854;8.830;2022-09-09T14:44:02;21.10;99.90
2030;DHT22;1020;48.854;8.830;2022-09-09T14:46:28;21.00;99.90
2030;DHT22;1020;48.854;8.830;2022-09-09T14:48:56;21.10;99.90
2030;DHT22;1020;48.854;8.830;2022-09-09T14:51:24;21.10;99.90
2030;DHT22;1020;48.854;8.830;2022-09-09T14:53:53;21.70;99.90
2030;DHT22;1020;48.854;8.830;2022-09-09T14:56:22;22.00;99.90
2030;DHT22;1020;48.854;8.830;2022-09-09T14:58:50;21.70;99.90
2030;DHT22;1020;48.854;8.830;2022-09-09T15:01:20;21.60;99.90
2030;DHT22;1020;48.854;8.830;2022-09-09T15:03:49;21.40;99.90
2030;DHT22;1020;48.854;8.830;2022-09-09T15:06:16;21.30;99.90
2030;DHT22;1020;48.854;8.830;2022-09-09T15:08:44;21.50;99.90
2030;DHT22;1020;48.854;8.830;2022-09-09T15:11:13;21.90;99.90
2030;DHT22;1020;48.854;8.830;2022-09-09T15:13:41;22.00;99.90
2030;DHT22;1020;48.854;8.830;2022-09-09T15:16:10;21.90;99.90
2030;DHT22;1020;48.854;8.830;2022-09-09T15:18:39;22.00;99.90
2030;DHT22;1020;48.854;8.830;2022-09-09T15:21:08;22.30;99.90
2030;DHT22;1020;48.854;8.830;2022-09-09T15:23:36;21.60;99.90
2030;DHT22;1020;48.854;8.830;2022-09-09T15:26:03;21.40;99.90
2030;DHT22;1020;48.854;8.830;2022-09-09T15:28:31;21.40;99.90
2030;DHT22;1020;48.854;8.830;2022-09-09T15:30:59;21.20;99.90
2030;DHT22;1020;48.854;8.830;2022-09-09T15:33:31;20.70;99.90
2030;DHT22;1020;48.854;8.830;2022-09-09T15:35:59;20.50;99.90
2030;DHT22;1020;48.854;8.830;2022-09-09T15:38:26;20.20;1.00
2030;DHT22;1020;48.854;8.830;2022-09-09T15:40:53;20.10;1.00
2030;DHT22;1020;48.854;8.830;2022-09-09T15:43:20;20.20;1.00
2030;DHT22;1020;48.854;8.830;2022-09-09T15:45:53;19.90;1.00
2030;DHT22;1020;48.854;8.830;2022-09-09T15:48:30;19.90;1.00
2030;DHT22;1020;48.854;8.830;2022-09-09T15:51:03;19.90;1.00
2030;DHT22;1020;48.854;8.830;2022-09-09T15:53:30;19.80;1.00
2030;DHT22;1020;48.854;8.830;2022-09-09T15:55:57;19.70;1.00
2030;DHT22;1020;48.854;8.830;2022-09-09T15:58:24;19.00;1.00
2030;DHT22;1020;48.854;8.830;2022-09-09T16:00:51;17.80;99.90
2030;DHT22;1020;48.854;8.830;2022-09-09T16:03:18;15.00;1.00
2030;DHT22;1020;48.854;8.830;2022-09-09T16:05:45;14.90;1.00
2030;DHT22;1020;48.854;8.830;2022-09-09T16:08:18;14.10;99.90
2030;DHT22;1020;48.854;8.830;2022-09-09T16:10:45;13.90;99.90
2030;DHT22;1020;48.854;8.830;2022-09-09T16:13:12;13.90;99.90
2030;DHT22;1020;48.854;8.830;2022-09-09T16:15:39;13.80;99.90
2030;DHT22;1020;48.854;8.830;2022-09-09T16:18:06;13.80;99.90
2030;DHT22;1020;48.854;8.830;2022-09-09T16:20:32;13.70;99.90
2030;DHT22;1020;48.854;8.830;2022-09-09T16:22:59;13.70;99.90
2030;DHT22;1020;48.854;8.830;2022-09-09T16:25:28;13.70;99.90
2030;DHT22;1020;48.854;8.830;2022-09-09T16:27:55;13.80;99.90
2030;DHT22;1020;48.854;8.830;2022-09-09T16:30:22;13.90;99.90
2030;DHT22;1020;48.854;8.830;2022-09-09T16:32:48;14.00;99.90
2030;DHT22;1020;48.854;8.830;2022-09-09T16:35:16;14.30;99.90